sensor_id;sensor_type;location;lat;lon;timestamp;P1;durP1;ratioP1;P2;durP2;ratioP2
15669;SDS011;18524;45.190;5.732;2022-12-18T00:01:22;35.37;;;23.60;;
15669;SDS011;18524;45.190;5.732;2022-12-18T00:06:12;30.97;;;22.10;;
15669;SDS011;18524;45.190;5.732;2022-12-18T00:11:04;48.97;;;27.97;;
15669;SDS011;18524;45.190;5.732;2022-12-18T00:16:00;40.93;;;25.20;;
15669;SDS011;18524;45.190;5.732;2022-12-18T00:20:52;33.33;;;21.63;;
15669;SDS011;18524;45.190;5.732;2022-12-18T00:25:42;30.17;;;21.07;;
15669;SDS011;18524;45.190;5.732;2022-12-18T00:30:33;31.90;;;22.23;;
15669;SDS011;18524;45.190;5.732;2022-12-18T00:35:23;29.83;;;20.60;;
15669;SDS011;18524;45.190;5.732;2022-12-18T00:40:14;30.63;;;20.93;;
15669;SDS011;18524;45.190;5.732;2022-12-18T00:45:04;34.93;;;22.83;;
15669;SDS011;18524;45.190;5.732;2022-12-18T00:49:55;31.53;;;22.03;;
15669;SDS011;18524;45.190;5.732;2022-12-18T00:54:45;34.30;;;22.60;;
15669;SDS011;18524;45.190;5.732;2022-12-18T00:59:36;31.03;;;21.97;;
15669;SDS011;18524;45.190;5.732;2022-12-18T01:04:26;32.20;;;21.60;;
15669;SDS011;18524;45.190;5.732;2022-12-18T01:09:16;28.90;;;19.10;;
15669;SDS011;18524;45.190;5.732;2022-12-18T01:14:07;26.40;;;18.93;;
15669;SDS011;18524;45.190;5.732;2022-12-18T01:18:58;26.03;;;18.67;;
15669;SDS011;18524;45.190;5.732;2022-12-18T01:23:52;27.97;;;19.07;;
15669;SDS011;18524;45.190;5.732;2022-12-18T01:28:43;23.83;;;17.50;;
15669;SDS011;18524;45.190;5.732;2022-12-18T01:33:34;26.03;;;17.87;;
15669;SDS011;18524;45.190;5.732;2022-12-18T01:38:24;26.33;;;18.40;;
15669;SDS011;18524;45.190;5.732;2022-12-18T01:43:14;25.37;;;18.23;;
15669;SDS011;18524;45.190;5.732;2022-12-18T01:48:06;27.37;;;18.27;;
15669;SDS011;18524;45.190;5.732;2022-12-18T01:53:11;25.00;;;18.17;;
15669;SDS011;18524;45.190;5.732;2022-12-18T01:58:04;25.73;;;18.63;;
15669;SDS011;18524;45.190;5.732;2022-12-18T02:02:55;27.17;;;18.67;;
15669;SDS011;18524;45.190;5.732;2022-12-18T02:12:51;25.87;;;18.43;;
15669;SDS011;18524;45.190;5.732;2022-12-18T02:17:55;26.17;;;17.93;;
15669;SDS011;18524;45.190;5.732;2022-12-18T02:27:50;26.83;;;18.77;;
15669;SDS011;18524;45.190;5.732;2022-12-18T02:32:43;27.13;;;19.57;;
15669;SDS011;18524;45.190;5.732;2022-12-18T02:37:38;30.60;;;19.87;;
15669;SDS011;18524;45.190;5.732;2022-12-18T02:42:30;30.73;;;19.77;;
15669;SDS011;18524;45.190;5.732;2022-12-18T02:47:23;27.53;;;19.70;;
15669;SDS011;18524;45.190;5.732;2022-12-18T02:57:30;30.40;;;20.27;;
15669;SDS011;18524;45.190;5.732;2022-12-18T03:03:10;30.10;;;20.73;;
15669;SDS011;18524;45.190;5.732;2022-12-18T03:08:03;29.67;;;20.27;;
15669;SDS011;18524;45.190;5.732;2022-12-18T03:13:05;28.30;;;19.70;;
15669;SDS011;18524;45.190;5.732;2022-12-18T03:18:08;29.60;;;20.00;;
15669;SDS011;18524;45.190;5.732;2022-12-18T03:23:09;31.47;;;20.70;;
15669;SDS011;18524;45.190;5.732;2022-12-18T03:28:04;27.90;;;18.73;;
15669;SDS011;18524;45.190;5.732;2022-12-18T03:33:00;29.87;;;18.60;;
15669;SDS011;18524;45.190;5.732;2022-12-18T03:37:55;24.43;;;16.43;;
15669;SDS011;18524;45.190;5.732;2022-12-18T03:42:50;24.00;;;16.33;;
15669;SDS011;18524;45.190;5.732;2022-12-18T03:47:55;22.60;;;15.53;;
15669;SDS011;18524;45.190;5.732;2022-12-18T03:52:58;21.23;;;14.37;;
15669;SDS011;18524;45.190;5.732;2022-12-18T03:57:56;21.83;;;15.20;;
15669;SDS011;18524;45.190;5.732;2022-12-18T04:02:49;23.70;;;15.93;;
15669;SDS011;18524;45.190;5.732;2022-12-18T04:07:42;23.07;;;15.83;;
15669;SDS011;18524;45.190;5.732;2022-12-18T04:12:33;21.47;;;14.60;;
15669;SDS011;18524;45.190;5.732;2022-12-18T04:17:24;26.30;;;17.70;;
15669;SDS011;18524;45.190;5.732;2022-12-18T04:22:15;24.87;;;16.73;;
15669;SDS011;18524;45.190;5.732;2022-12-18T04:27:05;25.23;;;17.33;;
15669;SDS011;18524;45.190;5.732;2022-12-18T04:31:56;22.33;;;16.20;;
15669;SDS011;18524;45.190;5.732;2022-12-18T04:36:46;22.67;;;16.03;;
15669;SDS011;18524;45.190;5.732;2022-12-18T04:41:36;26.27;;;17.03;;
15669;SDS011;18524;45.190;5.732;2022-12-18T04:46:27;21.90;;;15.60;;
15669;SDS011;18524;45.190;5.732;2022-12-18T04:51:17;21.00;;;14.70;;
15669;SDS011;18524;45.190;5.732;2022-12-18T04:56:09;22.47;;;14.90;;
15669;SDS011;18524;45.190;5.732;2022-12-18T05:01:01;20.73;;;14.77;;
15669;SDS011;18524;45.190;5.732;2022-12-18T05:05:52;20.33;;;14.93;;
15669;SDS011;18524;45.190;5.732;2022-12-18T05:10:42;21.50;;;15.87;;
15669;SDS011;18524;45.190;5.732;2022-12-18T05:15:33;19.90;;;13.57;;
15669;SDS011;18524;45.190;5.732;2022-12-18T05:20:24;18.70;;;13.07;;
15669;SDS011;18524;45.190;5.732;2022-12-18T05:25:15;20.90;;;14.30;;
15669;SDS011;18524;45.190;5.732;2022-12-18T05:30:06;18.73;;;13.00;;
15669;SDS011;18524;45.190;5.732;2022-12-18T05:34:58;19.27;;;13.87;;
15669;SDS011;18524;45.190;5.732;2022-12-18T05:39:48;19.17;;;13.93;;
15669;SDS011;18524;45.190;5.732;2022-12-18T05:44:38;19.33;;;13.50;;
15669;SDS011;18524;45.190;5.732;2022-12-18T05:49:29;23.50;;;15.77;;
15669;SDS011;18524;45.190;5.732;2022-12-18T05:54:19;25.20;;;15.73;;
15669;SDS011;18524;45.190;5.732;2022-12-18T05:59:10;22.07;;;15.10;;
15669;SDS011;18524;45.190;5.732;2022-12-18T06:04:00;23.53;;;16.00;;
15669;SDS011;18524;45.190;5.732;2022-12-18T06:08:50;23.83;;;16.20;;
15669;SDS011;18524;45.190;5.732;2022-12-18T06:13:41;24.40;;;17.60;;
15669;SDS011;18524;45.190;5.732;2022-12-18T06:18:32;27.53;;;17.80;;
15669;SDS011;18524;45.190;5.732;2022-12-18T06:23:22;27.67;;;17.63;;
15669;SDS011;18524;45.190;5.732;2022-12-18T06:28:13;26.53;;;17.70;;
15669;SDS011;18524;45.190;5.732;2022-12-18T06:33:03;25.40;;;17.53;;
15669;SDS011;18524;45.190;5.732;2022-12-18T06:37:54;29.10;;;18.07;;
15669;SDS011;18524;45.190;5.732;2022-12-18T06:42:44;26.10;;;17.37;;
15669;SDS011;18524;45.190;5.732;2022-12-18T06:47:34;24.80;;;17.13;;
15669;SDS011;18524;45.190;5.732;2022-12-18T06:52:25;27.50;;;18.57;;
15669;SDS011;18524;45.190;5.732;2022-12-18T06:57:16;29.53;;;19.30;;
15669;SDS011;18524;45.190;5.732;2022-12-18T07:02:10;29.47;;;19.13;;
15669;SDS011;18524;45.190;5.732;2022-12-18T07:07:02;29.10;;;18.37;;
15669;SDS011;18524;45.190;5.732;2022-12-18T07:11:52;27.57;;;18.03;;
15669;SDS011;18524;45.190;5.732;2022-12-18T07:16:43;28.53;;;18.70;;
15669;SDS011;18524;45.190;5.732;2022-12-18T07:21:33;28.67;;;18.40;;
15669;SDS011;18524;45.190;5.732;2022-12-18T07:26:24;27.93;;;18.97;;
15669;SDS011;18524;45.190;5.732;2022-12-18T07:31:18;26.13;;;18.33;;
15669;SDS011;18524;45.190;5.732;2022-12-18T07:36:10;26.30;;;17.57;;
15669;SDS011;18524;45.190;5.732;2022-12-18T07:41:05;27.63;;;17.77;;
15669;SDS011;18524;45.190;5.732;2022-12-18T07:45:57;26.43;;;18.07;;
15669;SDS011;18524;45.190;5.732;2022-12-18T07:50:47;28.73;;;19.63;;
15669;SDS011;18524;45.190;5.732;2022-12-18T07:55:38;33.70;;;20.63;;
15669;SDS011;18524;45.190;5.732;2022-12-18T08:00:29;28.63;;;19.50;;
15669;SDS011;18524;45.190;5.732;2022-12-18T08:05:20;28.27;;;19.50;;
15669;SDS011;18524;45.190;5.732;2022-12-18T08:10:10;24.57;;;17.13;;
15669;SDS011;18524;45.190;5.732;2022-12-18T08:15:01;22.53;;;14.50;;
15669;SDS011;18524;45.190;5.732;2022-12-18T08:19:51;20.97;;;13.73;;
15669;SDS011;18524;45.190;5.732;2022-12-18T08:24:42;23.07;;;15.43;;
15669;SDS011;18524;45.190;5.732;2022-12-18T08:29:32;25.37;;;16.73;;
15669;SDS011;18524;45.190;5.732;2022-12-18T08:34:23;26.87;;;17.53;;
15669;SDS011;18524;45.190;5.732;2022-12-18T08:39:14;24.73;;;16.90;;
15669;SDS011;18524;45.190;5.732;2022-12-18T08:44:04;28.00;;;17.60;;
15669;SDS011;18524;45.190;5.732;2022-12-18T08:49:13;28.13;;;17.70;;
15669;SDS011;18524;45.190;5.732;2022-12-18T08:54:04;26.20;;;18.37;;
15669;SDS011;18524;45.190;5.732;2022-12-18T08:58:55;29.30;;;19.97;;
15669;SDS011;18524;45.190;5.732;2022-12-18T09:03:46;32.03;;;20.60;;
15669;SDS011;18524;45.190;5.732;2022-12-18T09:08:37;29.50;;;19.10;;
15669;SDS011;18524;45.190;5.732;2022-12-18T09:13:28;28.70;;;18.80;;
15669;SDS011;18524;45.190;5.732;2022-12-18T09:18:19;33.00;;;20.87;;
15669;SDS011;18524;45.190;5.732;2022-12-18T09:23:10;35.47;;;23.03;;
15669;SDS011;18524;45.190;5.732;2022-12-18T09:28:02;39.27;;;25.17;;
15669;SDS011;18524;45.190;5.732;2022-12-18T09:32:55;35.33;;;23.13;;
15669;SDS011;18524;45.190;5.732;2022-12-18T09:37:46;35.50;;;22.80;;
15669;SDS011;18524;45.190;5.732;2022-12-18T09:42:37;32.83;;;21.37;;
15669;SDS011;18524;45.190;5.732;2022-12-18T09:47:28;30.67;;;22.20;;
15669;SDS011;18524;45.190;5.732;2022-12-18T09:52:25;29.53;;;20.47;;
15669;SDS011;18524;45.190;5.732;2022-12-18T09:57:20;29.27;;;19.67;;
15669;SDS011;18524;45.190;5.732;2022-12-18T10:02:14;27.37;;;19.33;;
15669;SDS011;18524;45.190;5.732;2022-12-18T10:07:18;26.33;;;18.13;;
15669;SDS011;18524;45.190;5.732;2022-12-18T10:12:32;24.13;;;17.47;;
15669;SDS011;18524;45.190;5.732;2022-12-18T10:22:56;22.83;;;15.93;;
15669;SDS011;18524;45.190;5.732;2022-12-18T10:28:00;20.43;;;14.10;;
15669;SDS011;18524;45.190;5.732;2022-12-18T10:33:03;19.43;;;15.07;;
15669;SDS011;18524;45.190;5.732;2022-12-18T10:38:04;20.87;;;14.93;;
15669;SDS011;18524;45.190;5.732;2022-12-18T10:44:10;20.47;;;14.97;;
15669;SDS011;18524;45.190;5.732;2022-12-18T10:48:19;21.03;;;15.13;;
15669;SDS011;18524;45.190;5.732;2022-12-18T10:53:13;19.90;;;14.53;;
15669;SDS011;18524;45.190;5.732;2022-12-18T10:58:28;19.40;;;13.50;;
15669;SDS011;18524;45.190;5.732;2022-12-18T11:03:36;16.80;;;12.87;;
15669;SDS011;18524;45.190;5.732;2022-12-18T11:08:29;13.83;;;11.00;;
15669;SDS011;18524;45.190;5.732;2022-12-18T11:13:21;13.87;;;11.13;;
15669;SDS011;18524;45.190;5.732;2022-12-18T11:18:17;15.03;;;10.40;;
15669;SDS011;18524;45.190;5.732;2022-12-18T11:23:12;12.67;;;9.50;;
15669;SDS011;18524;45.190;5.732;2022-12-18T11:33:24;13.13;;;10.00;;
15669;SDS011;18524;45.190;5.732;2022-12-18T11:48:25;14.13;;;10.60;;
15669;SDS011;18524;45.190;5.732;2022-12-18T11:53:19;13.63;;;9.93;;
15669;SDS011;18524;45.190;5.732;2022-12-18T12:03:21;12.63;;;9.97;;
15669;SDS011;18524;45.190;5.732;2022-12-18T12:29:20;15.47;;;12.77;;
15669;SDS011;18524;45.190;5.732;2022-12-18T12:34:32;14.83;;;12.07;;
15669;SDS011;18524;45.190;5.732;2022-12-18T12:39:37;18.87;;;13.93;;
15669;SDS011;18524;45.190;5.732;2022-12-18T12:44:35;19.10;;;13.60;;
15669;SDS011;18524;45.190;5.732;2022-12-18T12:49:32;17.37;;;13.27;;
15669;SDS011;18524;45.190;5.732;2022-12-18T12:54:24;16.60;;;12.20;;
15669;SDS011;18524;45.190;5.732;2022-12-18T13:10:10;14.57;;;11.50;;
15669;SDS011;18524;45.190;5.732;2022-12-18T13:15:22;14.70;;;10.93;;
15669;SDS011;18524;45.190;5.732;2022-12-18T13:20:15;14.00;;;10.30;;
15669;SDS011;18524;45.190;5.732;2022-12-18T13:25:51;12.47;;;9.83;;
15669;SDS011;18524;45.190;5.732;2022-12-18T13:40:45;13.40;;;9.50;;
15669;SDS011;18524;45.190;5.732;2022-12-18T13:46:16;14.77;;;10.70;;
15669;SDS011;18524;45.190;5.732;2022-12-18T13:51:17;13.90;;;10.53;;
15669;SDS011;18524;45.190;5.732;2022-12-18T13:56:15;14.23;;;10.60;;
15669;SDS011;18524;45.190;5.732;2022-12-18T14:01:23;14.40;;;10.20;;
15669;SDS011;18524;45.190;5.732;2022-12-18T14:06:14;14.87;;;11.30;;
15669;SDS011;18524;45.190;5.732;2022-12-18T14:11:05;12.13;;;9.90;;
15669;SDS011;18524;45.190;5.732;2022-12-18T14:15:56;12.17;;;9.57;;
15669;SDS011;18524;45.190;5.732;2022-12-18T14:20:51;12.33;;;9.63;;
15669;SDS011;18524;45.190;5.732;2022-12-18T14:25:45;12.37;;;9.40;;
15669;SDS011;18524;45.190;5.732;2022-12-18T14:30:40;10.10;;;7.83;;
15669;SDS011;18524;45.190;5.732;2022-12-18T14:35:33;10.17;;;7.63;;
15669;SDS011;18524;45.190;5.732;2022-12-18T14:40:25;11.27;;;9.17;;
15669;SDS011;18524;45.190;5.732;2022-12-18T14:45:34;11.20;;;9.07;;
15669;SDS011;18524;45.190;5.732;2022-12-18T14:50:31;17.63;;;12.67;;
15669;SDS011;18524;45.190;5.732;2022-12-18T14:55:21;18.20;;;13.57;;
15669;SDS011;18524;45.190;5.732;2022-12-18T15:00:15;16.57;;;13.30;;
15669;SDS011;18524;45.190;5.732;2022-12-18T15:05:19;60.43;;;36.40;;
15669;SDS011;18524;45.190;5.732;2022-12-18T15:10:33;15.23;;;11.57;;
15669;SDS011;18524;45.190;5.732;2022-12-18T15:20:24;14.27;;;11.03;;
15669;SDS011;18524;45.190;5.732;2022-12-18T15:25:26;17.93;;;12.80;;
15669;SDS011;18524;45.190;5.732;2022-12-18T15:30:19;19.93;;;16.03;;
15669;SDS011;18524;45.190;5.732;2022-12-18T15:40:17;16.43;;;13.23;;
15669;SDS011;18524;45.190;5.732;2022-12-18T15:45:12;15.10;;;11.00;;
15669;SDS011;18524;45.190;5.732;2022-12-18T15:50:03;16.47;;;13.07;;
15669;SDS011;18524;45.190;5.732;2022-12-18T15:54:54;15.73;;;11.37;;
15669;SDS011;18524;45.190;5.732;2022-12-18T16:00:03;16.93;;;13.83;;
15669;SDS011;18524;45.190;5.732;2022-12-18T16:04:54;19.80;;;15.30;;
15669;SDS011;18524;45.190;5.732;2022-12-18T16:09:47;20.17;;;14.60;;
15669;SDS011;18524;45.190;5.732;2022-12-18T16:14:38;18.07;;;13.37;;
15669;SDS011;18524;45.190;5.732;2022-12-18T16:19:28;17.17;;;13.37;;
15669;SDS011;18524;45.190;5.732;2022-12-18T16:24:27;17.17;;;12.67;;
15669;SDS011;18524;45.190;5.732;2022-12-18T16:29:20;20.53;;;14.73;;
15669;SDS011;18524;45.190;5.732;2022-12-18T16:34:20;23.67;;;16.53;;
15669;SDS011;18524;45.190;5.732;2022-12-18T16:39:14;23.23;;;16.40;;
15669;SDS011;18524;45.190;5.732;2022-12-18T16:44:04;28.43;;;20.67;;
15669;SDS011;18524;45.190;5.732;2022-12-18T16:48:56;26.23;;;19.63;;
15669;SDS011;18524;45.190;5.732;2022-12-18T16:53:48;29.00;;;21.13;;
15669;SDS011;18524;45.190;5.732;2022-12-18T16:58:38;24.57;;;17.87;;
15669;SDS011;18524;45.190;5.732;2022-12-18T17:03:29;27.37;;;20.07;;
15669;SDS011;18524;45.190;5.732;2022-12-18T17:08:19;24.97;;;18.33;;
15669;SDS011;18524;45.190;5.732;2022-12-18T17:13:10;26.90;;;19.70;;
15669;SDS011;18524;45.190;5.732;2022-12-18T17:18:00;22.73;;;17.10;;
15669;SDS011;18524;45.190;5.732;2022-12-18T17:22:51;21.97;;;16.40;;
15669;SDS011;18524;45.190;5.732;2022-12-18T17:27:42;29.47;;;18.67;;
15669;SDS011;18524;45.190;5.732;2022-12-18T17:32:32;26.73;;;19.30;;
15669;SDS011;18524;45.190;5.732;2022-12-18T17:37:22;26.90;;;18.67;;
15669;SDS011;18524;45.190;5.732;2022-12-18T17:42:14;32.33;;;22.33;;
15669;SDS011;18524;45.190;5.732;2022-12-18T17:47:04;33.67;;;20.90;;
15669;SDS011;18524;45.190;5.732;2022-12-18T17:51:55;30.83;;;20.77;;
15669;SDS011;18524;45.190;5.732;2022-12-18T17:56:45;21.87;;;16.90;;
15669;SDS011;18524;45.190;5.732;2022-12-18T18:01:36;17.23;;;12.30;;
15669;SDS011;18524;45.190;5.732;2022-12-18T18:06:26;18.97;;;14.87;;
15669;SDS011;18524;45.190;5.732;2022-12-18T18:11:18;17.80;;;13.13;;
15669;SDS011;18524;45.190;5.732;2022-12-18T18:16:29;20.43;;;15.10;;
15669;SDS011;18524;45.190;5.732;2022-12-18T18:21:21;43.97;;;30.00;;
15669;SDS011;18524;45.190;5.732;2022-12-18T18:26:11;26.77;;;18.43;;
15669;SDS011;18524;45.190;5.732;2022-12-18T18:31:05;27.57;;;19.10;;
15669;SDS011;18524;45.190;5.732;2022-12-18T18:35:59;26.20;;;19.37;;
15669;SDS011;18524;45.190;5.732;2022-12-18T18:41:02;57.37;;;37.37;;
15669;SDS011;18524;45.190;5.732;2022-12-18T18:45:54;30.07;;;19.70;;
15669;SDS011;18524;45.190;5.732;2022-12-18T18:50:56;24.53;;;17.90;;
15669;SDS011;18524;45.190;5.732;2022-12-18T18:55:51;27.43;;;19.27;;
15669;SDS011;18524;45.190;5.732;2022-12-18T19:00:42;33.07;;;22.27;;
15669;SDS011;18524;45.190;5.732;2022-12-18T19:05:32;32.90;;;22.37;;
15669;SDS011;18524;45.190;5.732;2022-12-18T19:10:23;44.33;;;25.83;;
15669;SDS011;18524;45.190;5.732;2022-12-18T19:15:13;32.47;;;20.07;;
15669;SDS011;18524;45.190;5.732;2022-12-18T19:20:03;41.80;;;24.70;;
15669;SDS011;18524;45.190;5.732;2022-12-18T19:24:54;30.03;;;20.13;;
15669;SDS011;18524;45.190;5.732;2022-12-18T19:29:44;25.00;;;17.87;;
15669;SDS011;18524;45.190;5.732;2022-12-18T19:34:35;30.50;;;20.43;;
15669;SDS011;18524;45.190;5.732;2022-12-18T19:39:25;25.10;;;18.03;;
15669;SDS011;18524;45.190;5.732;2022-12-18T19:44:16;24.77;;;17.53;;
15669;SDS011;18524;45.190;5.732;2022-12-18T19:49:07;29.90;;;18.03;;
15669;SDS011;18524;45.190;5.732;2022-12-18T19:53:58;30.73;;;20.50;;
15669;SDS011;18524;45.190;5.732;2022-12-18T19:58:50;29.97;;;21.13;;
15669;SDS011;18524;45.190;5.732;2022-12-18T20:03:41;45.20;;;22.13;;
15669;SDS011;18524;45.190;5.732;2022-12-18T20:08:34;25.57;;;17.63;;
15669;SDS011;18524;45.190;5.732;2022-12-18T20:13:25;25.97;;;18.07;;
15669;SDS011;18524;45.190;5.732;2022-12-18T20:18:15;39.87;;;23.67;;
15669;SDS011;18524;45.190;5.732;2022-12-18T20:23:06;27.17;;;18.57;;
15669;SDS011;18524;45.190;5.732;2022-12-18T20:27:56;28.23;;;18.70;;
15669;SDS011;18524;45.190;5.732;2022-12-18T20:32:47;35.57;;;21.03;;
15669;SDS011;18524;45.190;5.732;2022-12-18T20:37:37;35.93;;;21.20;;
15669;SDS011;18524;45.190;5.732;2022-12-18T20:42:28;35.70;;;20.83;;
15669;SDS011;18524;45.190;5.732;2022-12-18T20:47:18;29.70;;;20.57;;
15669;SDS011;18524;45.190;5.732;2022-12-18T20:52:08;29.13;;;19.27;;
15669;SDS011;18524;45.190;5.732;2022-12-18T20:56:59;25.70;;;18.27;;
15669;SDS011;18524;45.190;5.732;2022-12-18T21:01:49;26.80;;;18.77;;
15669;SDS011;18524;45.190;5.732;2022-12-18T21:06:40;24.50;;;18.03;;
15669;SDS011;18524;45.190;5.732;2022-12-18T21:11:31;25.87;;;19.07;;
15669;SDS011;18524;45.190;5.732;2022-12-18T21:16:41;25.27;;;18.43;;
15669;SDS011;18524;45.190;5.732;2022-12-18T21:21:34;30.03;;;19.90;;
15669;SDS011;18524;45.190;5.732;2022-12-18T21:26:25;29.23;;;20.27;;
15669;SDS011;18524;45.190;5.732;2022-12-18T21:31:17;30.20;;;19.27;;
15669;SDS011;18524;45.190;5.732;2022-12-18T21:36:07;27.93;;;19.70;;
15669;SDS011;18524;45.190;5.732;2022-12-18T21:40:58;25.50;;;18.03;;
15669;SDS011;18524;45.190;5.732;2022-12-18T21:45:49;26.13;;;18.57;;
15669;SDS011;18524;45.190;5.732;2022-12-18T21:50:39;25.90;;;19.07;;
15669;SDS011;18524;45.190;5.732;2022-12-18T21:55:29;30.43;;;21.30;;
15669;SDS011;18524;45.190;5.732;2022-12-18T22:00:20;48.50;;;31.33;;
15669;SDS011;18524;45.190;5.732;2022-12-18T22:05:10;40.03;;;26.10;;
15669;SDS011;18524;45.190;5.732;2022-12-18T22:10:01;40.37;;;25.10;;
15669;SDS011;18524;45.190;5.732;2022-12-18T22:14:51;33.37;;;23.13;;
15669;SDS011;18524;45.190;5.732;2022-12-18T22:19:42;32.23;;;21.53;;
15669;SDS011;18524;45.190;5.732;2022-12-18T22:24:32;27.10;;;18.67;;
15669;SDS011;18524;45.190;5.732;2022-12-18T22:29:23;27.73;;;18.80;;
15669;SDS011;18524;45.190;5.732;2022-12-18T22:34:33;24.33;;;16.80;;
15669;SDS011;18524;45.190;5.732;2022-12-18T22:39:24;23.57;;;15.07;;
15669;SDS011;18524;45.190;5.732;2022-12-18T22:44:16;21.03;;;15.67;;
15669;SDS011;18524;45.190;5.732;2022-12-18T22:49:08;22.13;;;16.07;;
15669;SDS011;18524;45.190;5.732;2022-12-18T22:54:02;22.53;;;15.50;;
15669;SDS011;18524;45.190;5.732;2022-12-18T22:58:53;23.50;;;14.50;;
15669;SDS011;18524;45.190;5.732;2022-12-18T23:03:43;21.63;;;14.50;;
15669;SDS011;18524;45.190;5.732;2022-12-18T23:08:33;21.90;;;14.03;;
15669;SDS011;18524;45.190;5.732;2022-12-18T23:13:24;20.03;;;13.37;;
15669;SDS011;18524;45.190;5.732;2022-12-18T23:18:16;20.07;;;13.47;;
15669;SDS011;18524;45.190;5.732;2022-12-18T23:23:06;20.53;;;14.10;;
15669;SDS011;18524;45.190;5.732;2022-12-18T23:27:57;15.70;;;11.87;;
15669;SDS011;18524;45.190;5.732;2022-12-18T23:32:48;18.70;;;13.07;;
15669;SDS011;18524;45.190;5.732;2022-12-18T23:37:38;16.80;;;12.23;;
15669;SDS011;18524;45.190;5.732;2022-12-18T23:42:28;16.63;;;11.10;;
15669;SDS011;18524;45.190;5.732;2022-12-18T23:47:19;18.53;;;12.50;;
15669;SDS011;18524;45.190;5.732;2022-12-18T23:52:09;17.53;;;12.50;;
15669;SDS011;18524;45.190;5.732;2022-12-18T23:57:00;18.83;;;13.10;;
